sensor_id;sensor_type;location;lat;lon;timestamp;pressure;altitude;pressure_sealevel;temperature;humidity
71716;BME280;59568;52.128;5.434;2023-08-31T00:01:01;100886.81;;;10.93;100.00
71716;BME280;59568;52.128;5.434;2023-08-31T00:03:28;100890.91;;;10.99;100.00
71716;BME280;59568;52.128;5.434;2023-08-31T00:05:55;100892.44;;;11.00;100.00
71716;BME280;59568;52.128;5.434;2023-08-31T00:08:23;100901.34;;;10.99;100.00
71716;BME280;59568;52.128;5.434;2023-08-31T00:10:57;100893.19;;;11.00;100.00
71716;BME280;59568;52.128;5.434;2023-08-31T00:13:24;100892.44;;;11.00;100.00
71716;BME280;59568;52.128;5.434;2023-08-31T00:15:55;100885.66;;;10.99;100.00
71716;BME280;59568;52.128;5.434;2023-08-31T00:18:26;100889.81;;;11.00;100.00
71716;BME280;59568;52.128;5.434;2023-08-31T00:20:53;100885.66;;;10.99;100.00
71716;BME280;59568;52.128;5.434;2023-08-31T00:23:20;100886.16;;;11.01;100.00
71716;BME280;59568;52.128;5.434;2023-08-31T00:25:47;100890.59;;;11.00;100.00
71716;BME280;59568;52.128;5.434;2023-08-31T00:28:17;100885.66;;;10.99;100.00
71716;BME280;59568;52.128;5.434;2023-08-31T00:30:45;100879.38;;;11.00;100.00
71716;BME280;59568;52.128;5.434;2023-08-31T00:33:13;100878.31;;;11.01;100.00
71716;BME280;59568;52.128;5.434;2023-08-31T00:35:41;100878.81;;;11.03;100.00
71716;BME280;59568;52.128;5.434;2023-08-31T00:38:13;100888.19;;;11.04;100.00
71716;BME280;59568;52.128;5.434;2023-08-31T00:40:41;100896.03;;;11.04;100.00
71716;BME280;59568;52.128;5.434;2023-08-31T00:43:12;100890.81;;;11.04;100.00
71716;BME280;59568;52.128;5.434;2023-08-31T00:45:42;100892.84;;;11.07;100.00
71716;BME280;59568;52.128;5.434;2023-08-31T00:48:11;100890.72;;;11.09;100.00
71716;BME280;59568;52.128;5.434;2023-08-31T00:50:40;100893.84;;;11.11;100.00
71716;BME280;59568;52.128;5.434;2023-08-31T00:53:08;100885.72;;;11.13;100.00
71716;BME280;59568;52.128;5.434;2023-08-31T00:55:35;100888.81;;;11.15;100.00
71716;BME280;59568;52.128;5.434;2023-08-31T00:58:02;100882.22;;;11.17;100.00
71716;BME280;59568;52.128;5.434;2023-08-31T01:00:40;100878.53;;;11.18;100.00
71716;BME280;59568;52.128;5.434;2023-08-31T01:05:58;100883.19;;;11.22;100.00
71716;BME280;59568;52.128;5.434;2023-08-31T01:08:35;100882.59;;;11.25;100.00
71716;BME280;59568;52.128;5.434;2023-08-31T01:11:29;100883.69;;;11.24;100.00
71716;BME280;59568;52.128;5.434;2023-08-31T01:14:08;100886.03;;;11.25;100.00
71716;BME280;59568;52.128;5.434;2023-08-31T01:16:39;100884.44;;;11.24;100.00
71716;BME280;59568;52.128;5.434;2023-08-31T01:21:45;100878.94;;;11.26;100.00
71716;BME280;59568;52.128;5.434;2023-08-31T01:24:14;100883.41;;;11.25;100.00
71716;BME280;59568;52.128;5.434;2023-08-31T01:26:41;100884.16;;;11.26;100.00
71716;BME280;59568;52.128;5.434;2023-08-31T01:29:09;100893.06;;;11.25;100.00
71716;BME280;59568;52.128;5.434;2023-08-31T01:31:42;100888.63;;;11.25;100.00
71716;BME280;59568;52.128;5.434;2023-08-31T01:34:10;100887.06;;;11.24;100.00
71716;BME280;59568;52.128;5.434;2023-08-31T01:36:42;100878.16;;;11.25;100.00
71716;BME280;59568;52.128;5.434;2023-08-31T01:39:18;100884.16;;;11.26;100.00
71716;BME280;59568;52.128;5.434;2023-08-31T01:41:50;100880.47;;;11.27;100.00
71716;BME280;59568;52.128;5.434;2023-08-31T01:44:18;100884.16;;;11.26;100.00
71716;BME280;59568;52.128;5.434;2023-08-31T01:46:46;100885.72;;;11.27;100.00
71716;BME280;59568;52.128;5.434;2023-08-31T01:49:13;100893.56;;;11.27;100.00
71716;BME280;59568;52.128;5.434;2023-08-31T01:51:41;100897.75;;;11.28;100.00
71716;BME280;59568;52.128;5.434;2023-08-31T01:54:07;100911.59;;;11.28;100.00
71716;BME280;59568;52.128;5.434;2023-08-31T01:56:34;100920.72;;;11.31;100.00
71716;BME280;59568;52.128;5.434;2023-08-31T01:59:01;100913.84;;;11.35;100.00
71716;BME280;59568;52.128;5.434;2023-08-31T02:01:28;100916.06;;;11.42;100.00
71716;BME280;59568;52.128;5.434;2023-08-31T02:03:56;100912.09;;;11.44;100.00
71716;BME280;59568;52.128;5.434;2023-08-31T02:06:22;100927.25;;;11.47;100.00
71716;BME280;59568;52.128;5.434;2023-08-31T02:08:49;100925.09;;;11.49;100.00
71716;BME280;59568;52.128;5.434;2023-08-31T02:11:16;100898.34;;;11.52;100.00
71716;BME280;59568;52.128;5.434;2023-08-31T02:13:43;100914.75;;;11.58;100.00
71716;BME280;59568;52.128;5.434;2023-08-31T02:16:10;100912.88;;;11.58;100.00
71716;BME280;59568;52.128;5.434;2023-08-31T02:18:36;100904.47;;;11.62;100.00
71716;BME280;59568;52.128;5.434;2023-08-31T02:21:03;100912.81;;;11.64;100.00
71716;BME280;59568;52.128;5.434;2023-08-31T02:23:34;100912.53;;;11.65;100.00
71716;BME280;59568;52.128;5.434;2023-08-31T02:26:00;100914.84;;;11.67;100.00
71716;BME280;59568;52.128;5.434;2023-08-31T02:28:27;100914.75;;;11.72;100.00
71716;BME280;59568;52.128;5.434;2023-08-31T02:31:02;100910.56;;;11.71;100.00
71716;BME280;59568;52.128;5.434;2023-08-31T02:33:29;100919.38;;;11.75;100.00
71716;BME280;59568;52.128;5.434;2023-08-31T02:35:56;100911.72;;;11.78;100.00
71716;BME280;59568;52.128;5.434;2023-08-31T02:38:23;100914.06;;;11.80;100.00
71716;BME280;59568;52.128;5.434;2023-08-31T02:40:50;100914.06;;;11.80;100.00
71716;BME280;59568;52.128;5.434;2023-08-31T02:43:17;100909.88;;;11.79;100.00
71716;BME280;59568;52.128;5.434;2023-08-31T02:45:44;100916.19;;;11.78;100.00
71716;BME280;59568;52.128;5.434;2023-08-31T02:48:10;100909.88;;;11.79;100.00
71716;BME280;59568;52.128;5.434;2023-08-31T02:50:38;100902.63;;;11.76;100.00
71716;BME280;59568;52.128;5.434;2023-08-31T02:53:05;100905.25;;;11.76;100.00
71716;BME280;59568;52.128;5.434;2023-08-31T02:55:32;100904.75;;;11.74;100.00
71716;BME280;59568;52.128;5.434;2023-08-31T02:58:00;100895.34;;;11.73;100.00
71716;BME280;59568;52.128;5.434;2023-08-31T03:00:26;100899.03;;;11.72;100.00
71716;BME280;59568;52.128;5.434;2023-08-31T03:02:54;100899.31;;;11.70;100.00
71716;BME280;59568;52.128;5.434;2023-08-31T03:05:21;100901.94;;;11.70;100.00
71716;BME280;59568;52.128;5.434;2023-08-31T03:07:48;100906.41;;;11.70;100.00
71716;BME280;59568;52.128;5.434;2023-08-31T03:10:15;100888.09;;;11.70;100.00
71716;BME280;59568;52.128;5.434;2023-08-31T03:12:42;100909.03;;;11.70;100.00
71716;BME280;59568;52.128;5.434;2023-08-31T03:15:09;100909.03;;;11.70;100.00
71716;BME280;59568;52.128;5.434;2023-08-31T03:17:35;100905.81;;;11.73;100.00
71716;BME280;59568;52.128;5.434;2023-08-31T03:20:02;100907.88;;;11.76;100.00
71716;BME280;59568;52.128;5.434;2023-08-31T03:22:32;100905.53;;;11.74;100.00
71716;BME280;59568;52.128;5.434;2023-08-31T03:24:59;100911.53;;;11.75;100.00
71716;BME280;59568;52.128;5.434;2023-08-31T03:27:26;100913.66;;;11.73;100.00
71716;BME280;59568;52.128;5.434;2023-08-31T03:29:53;100914.47;;;11.73;100.00
71716;BME280;59568;52.128;5.434;2023-08-31T03:32:20;100917.38;;;11.72;100.00
71716;BME280;59568;52.128;5.434;2023-08-31T03:34:46;100912.91;;;11.72;100.00
71716;BME280;59568;52.128;5.434;2023-08-31T03:37:13;100902.91;;;11.74;100.00
71716;BME280;59568;52.128;5.434;2023-08-31T03:39:40;100900.00;;;11.76;100.00
71716;BME280;59568;52.128;5.434;2023-08-31T03:42:08;100893.53;;;11.73;100.00
71716;BME280;59568;52.128;5.434;2023-08-31T03:44:35;100903.78;;;11.70;100.00
71716;BME280;59568;52.128;5.434;2023-08-31T03:47:04;100902.06;;;11.65;100.00
71716;BME280;59568;52.128;5.434;2023-08-31T03:49:30;100915.44;;;11.64;100.00
71716;BME280;59568;52.128;5.434;2023-08-31T03:51:59;100933.25;;;11.62;100.00
71716;BME280;59568;52.128;5.434;2023-08-31T03:54:25;100926.88;;;11.68;100.00
71716;BME280;59568;52.128;5.434;2023-08-31T03:56:52;100922.59;;;11.72;100.00
71716;BME280;59568;52.128;5.434;2023-08-31T03:59:19;100922.88;;;11.70;100.00
71716;BME280;59568;52.128;5.434;2023-08-31T04:01:46;100916.13;;;11.69;100.00
71716;BME280;59568;52.128;5.434;2023-08-31T04:04:13;100916.41;;;11.68;100.00
71716;BME280;59568;52.128;5.434;2023-08-31T04:06:40;100920.06;;;11.67;100.00
71716;BME280;59568;52.128;5.434;2023-08-31T04:09:07;100925.91;;;11.64;100.00
71716;BME280;59568;52.128;5.434;2023-08-31T04:11:34;100923.56;;;11.62;100.00
71716;BME280;59568;52.128;5.434;2023-08-31T04:14:01;100929.88;;;11.61;100.00
71716;BME280;59568;52.128;5.434;2023-08-31T04:16:28;100931.69;;;11.60;100.00
71716;BME280;59568;52.128;5.434;2023-08-31T04:18:55;100931.69;;;11.60;100.00
71716;BME280;59568;52.128;5.434;2023-08-31T04:21:22;100930.16;;;11.59;100.00
71716;BME280;59568;52.128;5.434;2023-08-31T04:23:48;100925.69;;;11.60;100.00
71716;BME280;59568;52.128;5.434;2023-08-31T04:26:15;100924.91;;;11.59;100.00
71716;BME280;59568;52.128;5.434;2023-08-31T04:28:44;100928.31;;;11.60;100.00
71716;BME280;59568;52.128;5.434;2023-08-31T04:31:11;100928.31;;;11.60;100.00
71716;BME280;59568;52.128;5.434;2023-08-31T04:33:38;100920.47;;;11.60;100.00
71716;BME280;59568;52.128;5.434;2023-08-31T04:36:06;100933.81;;;11.58;100.00
71716;BME280;59568;52.128;5.434;2023-08-31T04:38:34;100938.00;;;11.59;100.00
71716;BME280;59568;52.128;5.434;2023-08-31T04:41:01;100940.91;;;11.58;100.00
71716;BME280;59568;52.128;5.434;2023-08-31T04:43:29;100945.88;;;11.59;100.00
71716;BME280;59568;52.128;5.434;2023-08-31T04:45:56;100944.78;;;11.60;100.00
71716;BME280;59568;52.128;5.434;2023-08-31T04:48:23;100951.09;;;11.59;100.00
71716;BME280;59568;52.128;5.434;2023-08-31T04:50:50;100957.09;;;11.60;100.00
71716;BME280;59568;52.128;5.434;2023-08-31T04:53:16;100955.75;;;11.63;100.00
71716;BME280;59568;52.128;5.434;2023-08-31T04:55:43;100957.59;;;11.62;100.00
71716;BME280;59568;52.128;5.434;2023-08-31T04:58:10;100966.69;;;11.65;100.00
71716;BME280;59568;52.128;5.434;2023-08-31T05:00:37;100966.69;;;11.65;100.00
71716;BME280;59568;52.128;5.434;2023-08-31T05:03:06;100960.69;;;11.64;100.00
71716;BME280;59568;52.128;5.434;2023-08-31T05:05:33;100973.78;;;11.64;100.00
71716;BME280;59568;52.128;5.434;2023-08-31T05:08:02;100982.88;;;11.67;100.00
71716;BME280;59568;52.128;5.434;2023-08-31T05:10:30;100982.13;;;11.66;100.00
71716;BME280;59568;52.128;5.434;2023-08-31T05:12:56;100982.88;;;11.67;100.00
71716;BME280;59568;52.128;5.434;2023-08-31T05:15:23;100989.69;;;11.68;100.00
71716;BME280;59568;52.128;5.434;2023-08-31T05:17:54;100983.09;;;11.70;100.00
71716;BME280;59568;52.128;5.434;2023-08-31T05:20:21;100986.97;;;11.73;100.00
71716;BME280;59568;52.128;5.434;2023-08-31T05:22:50;100988.53;;;11.74;100.00
71716;BME280;59568;52.128;5.434;2023-08-31T05:25:17;100992.41;;;11.76;100.00
71716;BME280;59568;52.128;5.434;2023-08-31T05:27:44;100994.16;;;11.81;100.00
71716;BME280;59568;52.128;5.434;2023-08-31T05:30:11;100995.91;;;11.86;100.00
71716;BME280;59568;52.128;5.434;2023-08-31T05:32:38;100997.19;;;11.88;100.00
71716;BME280;59568;52.128;5.434;2023-08-31T05:35:06;101000.03;;;11.92;100.00
71716;BME280;59568;52.128;5.434;2023-08-31T05:37:33;100995.75;;;11.96;100.00
71716;BME280;59568;52.128;5.434;2023-08-31T05:40:05;100995.09;;;12.04;100.00
71716;BME280;59568;52.128;5.434;2023-08-31T05:42:37;100995.19;;;12.13;100.00
71716;BME280;59568;52.128;5.434;2023-08-31T05:45:04;100998.47;;;12.18;100.00
71716;BME280;59568;52.128;5.434;2023-08-31T05:47:31;100997.72;;;12.18;100.00
71716;BME280;59568;52.128;5.434;2023-08-31T05:49:58;100996.94;;;12.17;100.00
71716;BME280;59568;52.128;5.434;2023-08-31T05:52:25;101008.19;;;12.18;100.00
71716;BME280;59568;52.128;5.434;2023-08-31T05:54:51;101005.75;;;12.22;100.00
71716;BME280;59568;52.128;5.434;2023-08-31T05:57:19;101013.78;;;12.25;100.00
71716;BME280;59568;52.128;5.434;2023-08-31T05:59:48;101015.84;;;12.28;100.00
71716;BME280;59568;52.128;5.434;2023-08-31T06:02:15;101021.78;;;12.34;100.00
71716;BME280;59568;52.128;5.434;2023-08-31T06:04:43;101035.06;;;12.37;100.00
71716;BME280;59568;52.128;5.434;2023-08-31T06:07:10;101042.94;;;12.37;100.00
71716;BME280;59568;52.128;5.434;2023-08-31T06:09:37;101051.38;;;12.34;100.00
71716;BME280;59568;52.128;5.434;2023-08-31T06:12:05;101041.75;;;12.30;100.00
71716;BME280;59568;52.128;5.434;2023-08-31T06:14:33;101043.59;;;12.29;100.00
71716;BME280;59568;52.128;5.434;2023-08-31T06:17:00;101039.81;;;12.35;100.00
71716;BME280;59568;52.128;5.434;2023-08-31T06:19:26;101031.97;;;12.35;100.00
71716;BME280;59568;52.128;5.434;2023-08-31T06:21:53;101042.44;;;12.35;100.00
71716;BME280;59568;52.128;5.434;2023-08-31T06:24:20;101041.94;;;12.33;100.00
71716;BME280;59568;52.128;5.434;2023-08-31T06:26:47;101044.28;;;12.35;100.00
71716;BME280;59568;52.128;5.434;2023-08-31T06:29:14;101044.47;;;12.38;100.00
71716;BME280;59568;52.128;5.434;2023-08-31T06:31:41;101042.53;;;12.44;100.00
71716;BME280;59568;52.128;5.434;2023-08-31T06:34:08;101046.13;;;12.48;100.00
71716;BME280;59568;52.128;5.434;2023-08-31T06:36:35;101041.06;;;12.52;100.00
71716;BME280;59568;52.128;5.434;2023-08-31T06:39:01;101031.66;;;12.51;100.00
71716;BME280;59568;52.128;5.434;2023-08-31T06:41:29;101038.53;;;12.47;100.00
71716;BME280;59568;52.128;5.434;2023-08-31T06:43:57;101043.31;;;12.45;100.00
71716;BME280;59568;52.128;5.434;2023-08-31T06:46:24;101040.47;;;12.41;100.00
71716;BME280;59568;52.128;5.434;2023-08-31T06:48:51;101044.97;;;12.41;100.00
71716;BME280;59568;52.128;5.434;2023-08-31T06:51:19;101042.34;;;12.41;100.00
71716;BME280;59568;52.128;5.434;2023-08-31T06:53:49;101043.59;;;12.43;100.00
71716;BME280;59568;52.128;5.434;2023-08-31T06:56:16;101047.56;;;12.54;100.00
71716;BME280;59568;52.128;5.434;2023-08-31T06:58:43;101054.06;;;12.71;100.00
71716;BME280;59568;52.128;5.434;2023-08-31T07:01:12;101056.25;;;12.77;100.00
71716;BME280;59568;52.128;5.434;2023-08-31T07:03:39;101053.63;;;12.77;100.00
71716;BME280;59568;52.128;5.434;2023-08-31T07:06:06;101056.16;;;12.83;100.00
71716;BME280;59568;52.128;5.434;2023-08-31T07:08:33;101063.56;;;12.81;100.00
71716;BME280;59568;52.128;5.434;2023-08-31T07:11:00;101066.34;;;12.98;100.00
71716;BME280;59568;52.128;5.434;2023-08-31T07:13:27;101067.56;;;13.14;100.00
71716;BME280;59568;52.128;5.434;2023-08-31T07:15:54;101074.91;;;13.26;100.00
71716;BME280;59568;52.128;5.434;2023-08-31T07:18:21;101073.28;;;13.30;100.00
71716;BME280;59568;52.128;5.434;2023-08-31T07:20:48;101072.28;;;13.26;100.00
71716;BME280;59568;52.128;5.434;2023-08-31T07:23:15;101076.25;;;13.24;100.00
71716;BME280;59568;52.128;5.434;2023-08-31T07:25:42;101084.13;;;13.24;100.00
71716;BME280;59568;52.128;5.434;2023-08-31T07:28:09;101083.06;;;13.25;100.00
71716;BME280;59568;52.128;5.434;2023-08-31T07:30:37;101084.94;;;13.24;100.00
71716;BME280;59568;52.128;5.434;2023-08-31T07:33:05;101086.28;;;13.22;100.00
71716;BME280;59568;52.128;5.434;2023-08-31T07:35:52;101089.81;;;13.17;100.00
71716;BME280;59568;52.128;5.434;2023-08-31T07:38:19;101094.84;;;13.13;100.00
71716;BME280;59568;52.128;5.434;2023-08-31T07:40:46;101092.47;;;13.26;100.00
71716;BME280;59568;52.128;5.434;2023-08-31T07:43:13;101090.31;;;13.64;100.00
71716;BME280;59568;52.128;5.434;2023-08-31T07:45:41;101090.88;;;13.75;100.00
71716;BME280;59568;52.128;5.434;2023-08-31T07:48:08;101094.56;;;13.74;100.00
71716;BME280;59568;52.128;5.434;2023-08-31T07:50:35;101097.06;;;13.79;100.00
71716;BME280;59568;52.128;5.434;2023-08-31T07:53:02;101110.03;;;13.75;100.00
71716;BME280;59568;52.128;5.434;2023-08-31T07:55:32;101109.72;;;13.77;100.00
71716;BME280;59568;52.128;5.434;2023-08-31T07:58:00;101104.19;;;13.78;100.00
71716;BME280;59568;52.128;5.434;2023-08-31T08:00:27;101103.22;;;13.74;100.00
71716;BME280;59568;52.128;5.434;2023-08-31T08:02:55;101102.91;;;13.76;100.00
71716;BME280;59568;52.128;5.434;2023-08-31T08:05:22;101106.72;;;13.70;100.00
71716;BME280;59568;52.128;5.434;2023-08-31T08:07:49;101119.38;;;13.68;100.00
71716;BME280;59568;52.128;5.434;2023-08-31T08:10:16;101115.69;;;13.69;100.00
71716;BME280;59568;52.128;5.434;2023-08-31T08:12:43;101118.56;;;13.81;100.00
71716;BME280;59568;52.128;5.434;2023-08-31T08:15:11;101111.47;;;13.90;100.00
71716;BME280;59568;52.128;5.434;2023-08-31T08:17:38;101121.28;;;13.98;100.00
71716;BME280;59568;52.128;5.434;2023-08-31T08:20:08;101126.44;;;14.12;100.00
71716;BME280;59568;52.128;5.434;2023-08-31T08:22:36;101123.88;;;14.21;100.00
71716;BME280;59568;52.128;5.434;2023-08-31T08:25:03;101129.31;;;14.25;100.00
71716;BME280;59568;52.128;5.434;2023-08-31T08:27:30;101133.09;;;14.41;100.00
71716;BME280;59568;52.128;5.434;2023-08-31T08:29:59;101134.34;;;14.52;100.00
71716;BME280;59568;52.128;5.434;2023-08-31T08:32:26;101132.28;;;14.41;100.00
71716;BME280;59568;52.128;5.434;2023-08-31T08:34:53;101135.72;;;14.41;100.00
71716;BME280;59568;52.128;5.434;2023-08-31T08:37:20;101138.00;;;14.43;100.00
71716;BME280;59568;52.128;5.434;2023-08-31T08:39:50;101136.81;;;14.49;100.00
71716;BME280;59568;52.128;5.434;2023-08-31T08:42:24;101134.81;;;14.54;100.00
71716;BME280;59568;52.128;5.434;2023-08-31T08:44:51;101132.84;;;14.60;100.00
71716;BME280;59568;52.128;5.434;2023-08-31T08:47:19;101139.06;;;14.64;100.00
71716;BME280;59568;52.128;5.434;2023-08-31T08:49:47;101139.09;;;14.73;100.00
71716;BME280;59568;52.128;5.434;2023-08-31T08:52:15;101143.25;;;14.74;100.00
71716;BME280;59568;52.128;5.434;2023-08-31T08:54:42;101141.88;;;14.76;100.00
71716;BME280;59568;52.128;5.434;2023-08-31T08:57:10;101142.53;;;14.91;100.00
71716;BME280;59568;52.128;5.434;2023-08-31T08:59:37;101142.59;;;15.26;100.00
71716;BME280;59568;52.128;5.434;2023-08-31T09:02:04;101149.09;;;15.54;100.00
71716;BME280;59568;52.128;5.434;2023-08-31T09:04:31;101149.06;;;15.89;100.00
71716;BME280;59568;52.128;5.434;2023-08-31T09:06:59;101143.63;;;15.94;100.00
71716;BME280;59568;52.128;5.434;2023-08-31T09:09:26;101143.41;;;16.17;100.00
71716;BME280;59568;52.128;5.434;2023-08-31T09:11:53;101136.25;;;16.26;100.00
71716;BME280;59568;52.128;5.434;2023-08-31T09:14:22;101132.72;;;16.52;100.00
71716;BME280;59568;52.128;5.434;2023-08-31T09:16:50;101143.97;;;16.70;100.00
71716;BME280;59568;52.128;5.434;2023-08-31T09:19:20;101135.53;;;16.85;100.00
71716;BME280;59568;52.128;5.434;2023-08-31T09:21:48;101144.09;;;16.73;100.00
71716;BME280;59568;52.128;5.434;2023-08-31T09:24:15;101140.78;;;16.55;100.00
71716;BME280;59568;52.128;5.434;2023-08-31T09:26:45;101141.69;;;16.60;100.00
71716;BME280;59568;52.128;5.434;2023-08-31T09:29:13;101138.44;;;16.54;100.00
71716;BME280;59568;52.128;5.434;2023-08-31T09:31:44;101142.41;;;16.39;100.00
71716;BME280;59568;52.128;5.434;2023-08-31T09:34:13;101144.34;;;16.21;100.00
71716;BME280;59568;52.128;5.434;2023-08-31T09:36:41;101141.59;;;16.09;100.00
71716;BME280;59568;52.128;5.434;2023-08-31T09:39:09;101147.34;;;16.02;100.00
71716;BME280;59568;52.128;5.434;2023-08-31T09:41:55;101151.78;;;16.19;100.00
71716;BME280;59568;52.128;5.434;2023-08-31T09:44:22;101160.72;;;16.35;100.00
71716;BME280;59568;52.128;5.434;2023-08-31T09:46:49;101163.47;;;16.48;100.00
71716;BME280;59568;52.128;5.434;2023-08-31T09:49:17;101157.56;;;16.81;100.00
71716;BME280;59568;52.128;5.434;2023-08-31T09:51:46;101154.59;;;17.12;100.00
71716;BME280;59568;52.128;5.434;2023-08-31T09:54:15;101150.50;;;17.23;100.00
71716;BME280;59568;52.128;5.434;2023-08-31T09:56:44;101139.91;;;17.44;100.00
71716;BME280;59568;52.128;5.434;2023-08-31T09:59:12;101154.13;;;17.52;100.00
71716;BME280;59568;52.128;5.434;2023-08-31T10:01:40;101146.91;;;17.61;100.00
71716;BME280;59568;52.128;5.434;2023-08-31T10:04:08;101152.22;;;17.73;100.00
71716;BME280;59568;52.128;5.434;2023-08-31T10:06:35;101152.63;;;17.84;100.00
71716;BME280;59568;52.128;5.434;2023-08-31T10:09:06;101157.75;;;17.81;100.00
71716;BME280;59568;52.128;5.434;2023-08-31T10:11:33;101162.72;;;17.82;100.00
71716;BME280;59568;52.128;5.434;2023-08-31T10:14:03;101145.13;;;17.86;100.00
71716;BME280;59568;52.128;5.434;2023-08-31T10:16:31;101143.44;;;17.82;100.00
71716;BME280;59568;52.128;5.434;2023-08-31T10:18:59;101138.09;;;17.90;100.00
71716;BME280;59568;52.128;5.434;2023-08-31T10:21:26;101143.97;;;18.08;100.00
71716;BME280;59568;52.128;5.434;2023-08-31T10:23:53;101154.91;;;18.19;100.00
71716;BME280;59568;52.128;5.434;2023-08-31T10:26:28;101151.66;;;17.89;100.00
71716;BME280;59568;52.128;5.434;2023-08-31T10:28:57;101151.78;;;18.05;100.00
71716;BME280;59568;52.128;5.434;2023-08-31T10:31:28;101157.56;;;18.19;100.00
71716;BME280;59568;52.128;5.434;2023-08-31T10:34:00;101155.34;;;18.21;100.00
71716;BME280;59568;52.128;5.434;2023-08-31T10:36:46;101150.47;;;18.11;100.00
71716;BME280;59568;52.128;5.434;2023-08-31T10:39:21;101159.09;;;18.20;100.00
71716;BME280;59568;52.128;5.434;2023-08-31T10:41:57;101150.06;;;18.33;100.00
71716;BME280;59568;52.128;5.434;2023-08-31T10:44:25;101137.16;;;18.44;100.00
71716;BME280;59568;52.128;5.434;2023-08-31T10:46:53;101143.34;;;18.48;100.00
71716;BME280;59568;52.128;5.434;2023-08-31T10:49:22;101142.56;;;18.60;100.00
71716;BME280;59568;52.128;5.434;2023-08-31T10:51:57;101141.00;;;18.71;100.00
71716;BME280;59568;52.128;5.434;2023-08-31T10:54:31;101150.72;;;18.67;100.00
71716;BME280;59568;52.128;5.434;2023-08-31T10:57:03;101152.25;;;18.68;100.00
71716;BME280;59568;52.128;5.434;2023-08-31T10:59:50;101153.56;;;18.87;100.00
71716;BME280;59568;52.128;5.434;2023-08-31T11:02:42;101150.13;;;18.99;100.00
71716;BME280;59568;52.128;5.434;2023-08-31T11:05:13;101148.03;;;19.04;100.00
71716;BME280;59568;52.128;5.434;2023-08-31T11:07:47;101149.34;;;19.10;100.00
71716;BME280;59568;52.128;5.434;2023-08-31T11:12:51;101155.47;;;19.27;99.91
71716;BME280;59568;52.128;5.434;2023-08-31T11:15:24;101158.66;;;19.32;100.00
71716;BME280;59568;52.128;5.434;2023-08-31T11:17:57;101158.06;;;19.39;97.32
71716;BME280;59568;52.128;5.434;2023-08-31T11:20:25;101158.47;;;19.53;98.95
71716;BME280;59568;52.128;5.434;2023-08-31T11:22:55;101154.63;;;19.79;98.13
71716;BME280;59568;52.128;5.434;2023-08-31T11:25:23;101169.34;;;19.92;93.38
71716;BME280;59568;52.128;5.434;2023-08-31T11:30:29;101157.53;;;20.06;87.19
71716;BME280;59568;52.128;5.434;2023-08-31T11:33:03;101173.03;;;20.04;82.21
71716;BME280;59568;52.128;5.434;2023-08-31T11:35:33;101165.16;;;20.07;79.96
71716;BME280;59568;52.128;5.434;2023-08-31T11:38:03;101160.88;;;20.03;76.91
71716;BME280;59568;52.128;5.434;2023-08-31T11:40:31;101165.00;;;20.00;75.69
71716;BME280;59568;52.128;5.434;2023-08-31T11:42:58;101157.47;;;20.02;77.69
71716;BME280;59568;52.128;5.434;2023-08-31T11:45:31;101169.81;;;20.10;74.11
71716;BME280;59568;52.128;5.434;2023-08-31T11:47:58;101168.06;;;20.18;77.34
71716;BME280;59568;52.128;5.434;2023-08-31T11:50:26;101170.72;;;20.18;72.01
71716;BME280;59568;52.128;5.434;2023-08-31T11:52:54;101165.25;;;20.11;74.10
71716;BME280;59568;52.128;5.434;2023-08-31T11:55:22;101168.50;;;20.20;74.27
71716;BME280;59568;52.128;5.434;2023-08-31T11:57:50;101164.22;;;20.31;72.90
71716;BME280;59568;52.128;5.434;2023-08-31T12:00:19;101163.69;;;20.42;67.69
71716;BME280;59568;52.128;5.434;2023-08-31T12:03:00;101169.19;;;20.49;70.63
71716;BME280;59568;52.128;5.434;2023-08-31T12:05:28;101157.59;;;20.57;69.36
71716;BME280;59568;52.128;5.434;2023-08-31T12:07:56;101175.59;;;20.64;71.85
71716;BME280;59568;52.128;5.434;2023-08-31T12:10:24;101162.91;;;20.73;70.61
71716;BME280;59568;52.128;5.434;2023-08-31T12:12:53;101168.44;;;20.84;69.21
71716;BME280;59568;52.128;5.434;2023-08-31T12:15:23;101163.97;;;20.88;71.51
71716;BME280;59568;52.128;5.434;2023-08-31T12:17:50;101164.16;;;20.95;71.36
71716;BME280;59568;52.128;5.434;2023-08-31T12:20:27;101158.41;;;20.93;65.17
71716;BME280;59568;52.128;5.434;2023-08-31T12:22:54;101169.59;;;20.83;64.63
71716;BME280;59568;52.128;5.434;2023-08-31T12:25:22;101171.09;;;20.84;68.37
71716;BME280;59568;52.128;5.434;2023-08-31T12:27:49;101176.22;;;20.92;64.68
71716;BME280;59568;52.128;5.434;2023-08-31T12:30:20;101173.09;;;20.87;67.86
71716;BME280;59568;52.128;5.434;2023-08-31T12:32:47;101182.88;;;21.02;68.89
71716;BME280;59568;52.128;5.434;2023-08-31T12:35:14;101178.28;;;21.19;70.09
71716;BME280;59568;52.128;5.434;2023-08-31T12:37:41;101181.75;;;21.23;64.37
71716;BME280;59568;52.128;5.434;2023-08-31T12:40:09;101180.94;;;21.19;65.02
71716;BME280;59568;52.128;5.434;2023-08-31T12:42:36;101185.31;;;20.91;69.42
71716;BME280;59568;52.128;5.434;2023-08-31T12:45:04;101179.25;;;20.91;66.33
71716;BME280;59568;52.128;5.434;2023-08-31T12:47:34;101176.53;;;21.07;64.69
71716;BME280;59568;52.128;5.434;2023-08-31T12:50:02;101177.00;;;21.12;63.03
71716;BME280;59568;52.128;5.434;2023-08-31T12:52:30;101181.47;;;20.89;61.82
71716;BME280;59568;52.128;5.434;2023-08-31T12:54:56;101184.09;;;20.69;60.09
71716;BME280;59568;52.128;5.434;2023-08-31T12:57:23;101186.63;;;20.82;65.09